createdAt,value
2017-12-25T08:28:36.278Z,15.13
2017-12-25T08:31:06.486Z,19.17
2017-12-25T08:33:35.643Z,17.00
2017-12-25T08:36:03.604Z,16.30
2017-12-25T08:38:31.434Z,16.00
2017-12-25T08:40:59.311Z,13.93
2017-12-25T08:43:27.132Z,13.77
2017-12-25T08:45:54.994Z,14.70
2017-12-25T08:48:37.521Z,14.20
2017-12-25T08:51:06.808Z,16.00
2017-12-25T08:53:36.029Z,15.50
2017-12-25T08:56:12.297Z,15.40
2017-12-25T08:58:40.163Z,15.93
2017-12-25T09:01:09.226Z,16.70
2017-12-25T09:03:37.130Z,15.97
2017-12-25T09:06:05.242Z,16.67
2017-12-25T09:08:33.186Z,15.20
2017-12-25T09:11:02.564Z,16.00
2017-12-25T09:13:31.432Z,15.87
2017-12-25T09:15:59.479Z,14.90
2017-12-25T09:18:27.612Z,14.83
2017-12-25T09:20:56.607Z,16.27
2017-12-25T09:23:24.531Z,16.40
2017-12-25T09:25:53.503Z,17.30
2017-12-25T09:28:21.393Z,16.30
2017-12-25T09:30:51.150Z,16.17
2017-12-25T09:33:19.043Z,17.10
2017-12-25T09:35:48.648Z,17.20
2017-12-25T09:38:17.417Z,17.53
2017-12-25T09:40:45.419Z,17.03
2017-12-25T09:43:14.136Z,17.37
2017-12-25T09:45:41.946Z,18.87
2017-12-25T09:48:10.528Z,18.80
2017-12-25T09:50:38.618Z,17.33
2017-12-25T09:53:07.272Z,18.07
2017-12-25T09:55:35.133Z,17.60
2017-12-25T09:58:02.988Z,18.90
2017-12-25T10:00:30.918Z,19.27
2017-12-25T10:02:59.625Z,18.00
2017-12-25T10:05:27.470Z,16.47
2017-12-25T10:07:55.439Z,17.13
2017-12-25T10:10:24.232Z,15.93
2017-12-25T10:12:53.348Z,17.53
2017-12-25T10:15:22.771Z,17.90
2017-12-25T10:17:51.692Z,19.83
2017-12-25T10:20:21.182Z,18.93
2017-12-25T10:22:51.486Z,19.40
2017-12-25T10:25:22.085Z,23.87
2017-12-25T10:27:51.165Z,18.20
2017-12-25T10:30:20.436Z,20.17
2017-12-25T10:32:49.536Z,18.70
2017-12-25T10:35:17.890Z,19.77
2017-12-25T10:37:46.098Z,19.90
2017-12-25T10:40:15.050Z,20.50
2017-12-25T10:42:43.810Z,21.23
2017-12-25T10:45:11.998Z,20.67
2017-12-25T10:47:39.977Z,20.97
2017-12-25T10:50:07.793Z,20.97
2017-12-25T10:52:35.735Z,19.80
2017-12-25T10:55:03.583Z,16.80
2017-12-25T10:57:31.503Z,15.30
2017-12-25T10:59:59.368Z,16.47
2017-12-25T11:02:27.197Z,15.97
2017-12-25T11:04:55.076Z,17.00
2017-12-25T11:07:23.686Z,17.27
2017-12-25T11:09:51.486Z,16.83
2017-12-25T11:12:19.316Z,15.43
2017-12-25T11:14:48.559Z,16.23
2017-12-25T11:17:17.435Z,16.37
2017-12-25T11:19:45.368Z,15.33
2017-12-25T11:22:14.016Z,15.80
2017-12-25T11:24:41.974Z,15.73
2017-12-25T11:27:09.744Z,16.83
2017-12-25T11:29:37.567Z,18.50
2017-12-25T11:32:05.353Z,18.50
2017-12-25T11:34:33.184Z,16.83
2017-12-25T11:37:01.088Z,16.47
2017-12-25T11:39:28.874Z,16.90
2017-12-25T11:41:56.658Z,18.10
2017-12-25T11:44:24.434Z,18.70
2017-12-25T11:46:52.250Z,20.70
2017-12-25T11:49:20.112Z,22.47
2017-12-25T11:51:47.889Z,21.37
2017-12-25T11:54:15.765Z,23.90
2017-12-25T11:56:43.636Z,23.43
2017-12-25T11:59:11.457Z,22.93
2017-12-25T12:01:39.227Z,24.67
2017-12-25T12:04:07.070Z,24.77
2017-12-25T12:06:34.883Z,24.77
2017-12-25T12:09:02.704Z,23.33
2017-12-25T12:11:30.541Z,24.00
2017-12-25T12:13:58.410Z,23.60
2017-12-25T12:16:26.285Z,23.20
2017-12-25T12:18:54.612Z,24.23
2017-12-25T12:21:22.417Z,24.20
2017-12-25T12:23:50.175Z,24.00
2017-12-25T12:26:17.973Z,23.17
2017-12-25T12:28:45.830Z,24.00
2017-12-25T12:31:14.486Z,23.63
2017-12-25T12:33:42.240Z,22.70
2017-12-25T12:36:10.035Z,22.47
2017-12-25T12:38:37.903Z,26.17
2017-12-25T12:41:06.486Z,24.67
2017-12-25T12:43:34.309Z,24.60
2017-12-25T12:46:02.099Z,25.90
2017-12-25T12:48:30.665Z,25.73
2017-12-25T12:50:58.381Z,25.87
2017-12-25T12:53:26.190Z,26.23
2017-12-25T12:55:53.914Z,25.07
2017-12-25T12:58:21.766Z,25.13
2017-12-25T13:00:49.593Z,23.63
2017-12-25T13:03:17.367Z,23.37
2017-12-25T13:05:45.240Z,24.30
2017-12-25T13:08:13.064Z,21.93
2017-12-25T13:10:40.921Z,21.57
2017-12-25T13:13:08.795Z,21.57
2017-12-25T13:15:36.650Z,21.97
2017-12-25T13:18:04.462Z,24.70
2017-12-25T13:20:32.360Z,18.87
2017-12-25T13:23:00.192Z,21.90
2017-12-25T13:25:27.986Z,20.80
2017-12-25T13:27:55.807Z,21.90
2017-12-25T13:30:23.579Z,22.30
2017-12-25T13:32:51.350Z,21.50
2017-12-25T13:35:19.228Z,22.40
2017-12-25T13:37:47.086Z,23.83
2017-12-25T13:40:15.224Z,24.67
2017-12-25T13:42:50.922Z,23.00
2017-12-25T13:45:18.840Z,23.30
2017-12-25T13:47:47.394Z,21.43
2017-12-25T13:50:15.257Z,22.57
2017-12-25T13:52:43.095Z,21.00
2017-12-25T13:55:11.054Z,19.10
2017-12-25T13:57:38.829Z,21.67
2017-12-25T14:00:06.661Z,22.67
2017-12-25T14:02:34.673Z,22.37
2017-12-25T14:05:03.087Z,21.02
2017-12-25T14:07:30.985Z,19.70
2017-12-25T14:09:58.854Z,19.40
2017-12-25T14:12:26.730Z,19.13
2017-12-25T14:14:54.580Z,21.48
2017-12-25T14:17:22.445Z,20.37
2017-12-25T14:19:50.234Z,21.03
2017-12-25T14:22:18.034Z,20.20
2017-12-25T14:24:45.905Z,19.13
2017-12-25T14:27:13.752Z,19.80
2017-12-25T14:29:42.432Z,17.83
2017-12-25T14:32:11.072Z,19.03
2017-12-25T14:34:39.178Z,19.70
2017-12-25T14:37:08.426Z,19.30
2017-12-25T14:39:37.184Z,19.80
2017-12-25T14:42:05.529Z,19.47
2017-12-25T14:44:33.901Z,18.63
2017-12-25T14:47:02.395Z,20.23
2017-12-25T14:49:32.475Z,21.47
2017-12-25T14:52:03.774Z,21.30
2017-12-25T14:55:08.814Z,21.30
2017-12-25T14:57:37.019Z,21.83
2017-12-25T15:00:05.321Z,21.90
2017-12-25T15:02:33.598Z,22.93
2017-12-25T15:05:01.845Z,22.27
2017-12-25T15:07:30.450Z,23.97
2017-12-25T15:09:58.295Z,22.87
2017-12-25T15:12:26.108Z,23.77
2017-12-25T15:14:54.012Z,21.60
2017-12-25T15:17:21.967Z,25.47
2017-12-25T15:19:49.864Z,23.40
2017-12-25T15:22:17.695Z,24.03
2017-12-25T15:24:48.373Z,25.37
2017-12-25T15:27:16.173Z,23.97
2017-12-25T15:29:49.955Z,24.10
2017-12-25T15:32:19.710Z,26.63
2017-12-25T15:34:56.116Z,26.80
2017-12-25T15:37:24.125Z,27.10
2017-12-25T15:39:52.895Z,26.57
2017-12-25T15:42:21.986Z,26.37
2017-12-25T15:44:49.868Z,27.87
2017-12-25T15:47:17.682Z,27.90
2017-12-25T15:49:45.593Z,31.93
2017-12-25T15:52:13.493Z,29.93
2017-12-25T15:54:42.142Z,30.30
2017-12-25T15:57:09.964Z,31.43
2017-12-25T15:59:37.823Z,29.10
2017-12-25T16:02:05.650Z,32.80
2017-12-25T16:04:33.444Z,30.37
2017-12-25T16:07:01.294Z,30.60
2017-12-25T16:09:29.082Z,29.97
2017-12-25T16:11:56.910Z,32.03
2017-12-25T16:14:24.769Z,32.00
2017-12-25T16:16:52.590Z,30.60
2017-12-25T16:19:21.182Z,31.20
2017-12-25T16:21:49.794Z,31.80
2017-12-25T16:24:17.604Z,29.90
2017-12-25T16:26:45.473Z,30.40
2017-12-25T16:29:13.267Z,30.30
2017-12-25T16:31:41.554Z,32.27
2017-12-25T16:34:09.375Z,30.63
2017-12-25T16:36:37.195Z,31.63
2017-12-25T16:39:05.285Z,31.73
2017-12-25T16:41:33.128Z,31.30
2017-12-25T16:44:01.735Z,32.83
2017-12-25T16:46:29.600Z,31.17
2017-12-25T16:48:57.504Z,31.80
2017-12-25T16:51:25.407Z,33.17
2017-12-25T16:53:53.340Z,33.33
2017-12-25T16:56:21.274Z,34.10
2017-12-25T16:58:49.810Z,34.07
2017-12-25T17:01:18.179Z,33.30
2017-12-25T17:03:46.037Z,30.80
2017-12-25T17:06:13.902Z,32.53
2017-12-25T17:08:41.686Z,33.17
2017-12-25T17:11:09.539Z,34.63
2017-12-25T17:13:37.371Z,35.07
2017-12-25T17:16:05.266Z,32.87
2017-12-25T17:18:33.232Z,34.30
2017-12-25T17:21:01.170Z,32.93
2017-12-25T17:23:31.042Z,36.13
2017-12-25T17:25:58.955Z,35.00
2017-12-25T17:28:26.877Z,36.30
2017-12-25T17:30:56.373Z,32.97
2017-12-25T17:33:26.813Z,35.27
2017-12-25T17:35:54.749Z,35.60
2017-12-25T17:41:31.040Z,38.03
2017-12-25T17:43:58.873Z,39.63
2017-12-25T17:46:27.418Z,37.10
2017-12-25T17:48:55.205Z,36.37
2017-12-25T17:51:23.019Z,36.70
2017-12-25T17:53:50.847Z,36.60
2017-12-25T17:56:19.578Z,35.67
2017-12-25T17:58:47.374Z,38.10
2017-12-25T18:01:15.197Z,37.93
2017-12-25T18:03:42.999Z,36.93
2017-12-25T18:06:11.142Z,38.30
2017-12-25T18:08:40.619Z,39.23
2017-12-25T18:11:09.268Z,37.90
2017-12-25T18:13:37.060Z,36.83
2017-12-25T18:16:05.889Z,38.07
2017-12-25T18:18:33.897Z,39.03
2017-12-25T18:21:01.723Z,38.17
2017-12-25T18:23:29.628Z,37.27
2017-12-25T18:25:57.704Z,37.37
2017-12-25T18:28:25.668Z,34.47
2017-12-25T18:30:53.973Z,33.73
2017-12-25T18:33:23.400Z,34.33
2017-12-25T18:35:52.239Z,34.87
2017-12-25T18:38:20.165Z,36.40
2017-12-25T18:40:48.303Z,37.37
2017-12-25T18:43:16.857Z,35.73
2017-12-25T18:45:46.996Z,34.80
2017-12-25T18:48:15.656Z,35.47
2017-12-25T18:50:43.533Z,36.47
2017-12-25T18:53:11.412Z,36.40
2017-12-25T18:55:39.175Z,33.67
2017-12-25T18:58:07.052Z,35.60
2017-12-25T19:00:35.714Z,35.97
2017-12-25T19:03:03.653Z,35.30
2017-12-25T19:05:34.311Z,35.50
2017-12-25T19:08:02.690Z,36.97
2017-12-25T19:10:30.463Z,35.20
2017-12-25T19:12:58.324Z,34.43
2017-12-25T19:15:26.231Z,35.37
2017-12-25T19:17:54.834Z,34.70
2017-12-25T19:20:22.663Z,36.33
2017-12-25T19:22:50.608Z,34.53
2017-12-25T19:25:18.401Z,36.47
2017-12-25T19:27:47.065Z,34.90
2017-12-25T19:30:14.931Z,36.47
2017-12-25T19:32:42.762Z,36.20
2017-12-25T19:35:10.608Z,37.07
2017-12-25T19:37:38.492Z,35.70
2017-12-25T19:40:06.326Z,36.17
2017-12-25T19:42:35.070Z,35.40
2017-12-25T19:45:03.806Z,36.57
2017-12-25T19:47:31.604Z,37.80
2017-12-25T19:49:59.419Z,37.47
2017-12-25T19:52:27.974Z,37.33
2017-12-25T19:54:55.807Z,37.67
2017-12-25T19:57:23.659Z,37.10
2017-12-25T19:59:51.616Z,36.77
2017-12-25T20:02:19.493Z,39.70
2017-12-25T20:04:47.275Z,36.57
2017-12-25T20:07:15.048Z,36.93
2017-12-25T20:09:42.875Z,36.50
2017-12-25T20:12:11.515Z,38.50
2017-12-25T20:14:39.452Z,37.60
2017-12-25T20:17:07.348Z,34.10
2017-12-25T20:19:36.241Z,36.60
2017-12-25T20:22:04.777Z,35.27
2017-12-25T20:24:33.111Z,34.43
2017-12-25T20:27:02.614Z,33.30
2017-12-25T20:29:31.270Z,36.17
2017-12-25T20:32:00.417Z,34.93
2017-12-25T20:34:29.074Z,36.83
2017-12-25T20:36:57.745Z,35.70
2017-12-25T20:39:26.201Z,34.57
2017-12-25T20:41:54.833Z,34.60
2017-12-25T20:44:23.477Z,35.50
2017-12-25T20:46:51.708Z,37.73
2017-12-25T20:49:20.386Z,35.83
2017-12-25T20:51:48.299Z,35.60
2017-12-25T20:54:16.212Z,34.73
2017-12-25T20:56:44.606Z,32.97
2017-12-25T20:59:13.681Z,34.70
2017-12-25T21:01:43.290Z,34.47
2017-12-25T21:04:11.868Z,35.00
2017-12-25T21:06:40.196Z,36.20
2017-12-25T21:09:09.696Z,35.10
2017-12-25T21:11:38.502Z,33.27
2017-12-25T21:14:06.310Z,34.90
2017-12-25T21:16:34.148Z,35.30
2017-12-25T21:19:02.043Z,35.27
2017-12-25T21:21:29.816Z,34.27
2017-12-25T21:23:57.642Z,36.87
2017-12-25T21:26:25.472Z,36.17
2017-12-25T21:28:53.353Z,35.87
2017-12-25T21:31:21.146Z,34.60
2017-12-25T21:33:49.076Z,35.37
2017-12-25T21:36:17.793Z,35.80
2017-12-25T21:38:45.592Z,34.80
